createdAt,value
2023-03-15T00:00:00.473Z,38.28
2023-03-15T00:02:28.818Z,38.44
2023-03-15T00:04:56.963Z,38.77
2023-03-15T00:07:25.934Z,38.38
2023-03-15T00:09:55.571Z,38.01
2023-03-15T00:12:24.098Z,38.41
2023-03-15T00:14:52.408Z,38.53
2023-03-15T00:17:22.835Z,38.44
2023-03-15T00:19:50.942Z,38.75
2023-03-15T00:22:19.017Z,38.68
2023-03-15T00:24:47.152Z,38.29
2023-03-15T00:27:16.619Z,38.20
2023-03-15T00:29:44.706Z,38.32
2023-03-15T00:32:12.926Z,37.86
2023-03-15T00:34:41.004Z,38.15
2023-03-15T00:37:09.301Z,38.34
2023-03-15T00:39:39.704Z,38.49
2023-03-15T00:42:09.754Z,38.58
2023-03-15T00:44:39.213Z,38.01
2023-03-15T00:47:07.400Z,37.85
2023-03-15T00:49:35.489Z,38.14
2023-03-15T00:52:03.647Z,38.30
2023-03-15T00:54:33.522Z,38.52
2023-03-15T00:57:01.632Z,38.23
2023-03-15T00:59:29.799Z,38.07
2023-03-15T01:01:59.485Z,38.18
2023-03-15T01:04:27.597Z,38.35
2023-03-15T01:06:55.717Z,37.98
2023-03-15T01:09:23.829Z,38.19
2023-03-15T01:11:51.989Z,37.82
2023-03-15T01:14:20.090Z,37.63
2023-03-15T01:16:48.228Z,38.15
2023-03-15T01:19:17.767Z,38.39
2023-03-15T01:21:47.952Z,37.66
2023-03-15T01:24:18.470Z,38.19
2023-03-15T01:26:46.568Z,38.29
2023-03-15T01:29:14.885Z,37.83
2023-03-15T01:31:43.065Z,38.36
2023-03-15T01:34:11.970Z,37.86
2023-03-15T01:36:41.545Z,37.82
2023-03-15T01:39:09.775Z,37.91
2023-03-15T01:41:43.502Z,38.29
2023-03-15T01:44:14.811Z,38.24
2023-03-15T01:46:43.330Z,38.22
2023-03-15T01:49:22.946Z,37.79
2023-03-15T01:51:53.653Z,37.50
2023-03-15T01:54:24.597Z,37.79
2023-03-15T01:56:54.068Z,37.46
2023-03-15T01:59:25.133Z,37.59
2023-03-15T02:01:54.652Z,37.64
2023-03-15T02:04:25.093Z,37.83
2023-03-15T02:06:59.290Z,37.57
2023-03-15T02:09:38.505Z,37.68
2023-03-15T02:12:07.040Z,37.49
2023-03-15T02:14:35.284Z,37.71
2023-03-15T02:17:04.709Z,37.48
2023-03-15T02:19:40.211Z,37.80
2023-03-15T02:22:19.611Z,37.32
2023-03-15T02:24:50.496Z,37.79
2023-03-15T02:27:23.771Z,37.66
2023-03-15T02:29:52.050Z,38.05
2023-03-15T02:32:22.032Z,37.37
2023-03-15T02:34:50.846Z,37.38
2023-03-15T02:37:18.973Z,37.90
2023-03-15T02:39:47.671Z,37.31
2023-03-15T02:42:15.753Z,37.77
2023-03-15T02:44:46.035Z,37.89
2023-03-15T02:47:16.584Z,37.51
2023-03-15T02:49:46.144Z,37.76
2023-03-15T02:52:14.854Z,37.83
2023-03-15T02:54:43.588Z,37.94
2023-03-15T02:57:12.396Z,37.20
2023-03-15T02:59:42.186Z,37.12
2023-03-15T03:02:12.581Z,37.35
2023-03-15T03:04:42.742Z,37.77
2023-03-15T03:07:11.130Z,37.88
2023-03-15T03:09:49.698Z,37.57
2023-03-15T03:12:19.287Z,37.34
2023-03-15T03:14:47.927Z,37.40
2023-03-15T03:17:20.751Z,37.68
2023-03-15T03:19:48.986Z,37.82
2023-03-15T03:22:20.344Z,37.27
2023-03-15T03:24:48.701Z,37.49
2023-03-15T03:27:17.714Z,37.08
2023-03-15T03:29:47.926Z,37.64
2023-03-15T03:32:17.499Z,37.32
2023-03-15T03:34:48.480Z,37.52
2023-03-15T03:37:19.761Z,37.36
2023-03-15T03:39:58.914Z,37.27
2023-03-15T03:42:27.290Z,37.12
2023-03-15T03:44:55.554Z,37.09
2023-03-15T03:47:26.494Z,37.14
2023-03-15T03:49:56.072Z,37.14
2023-03-15T03:52:24.796Z,37.42
2023-03-15T03:54:55.768Z,37.37
2023-03-15T03:57:23.888Z,37.53
2023-03-15T03:59:52.069Z,37.32
2023-03-15T04:02:20.249Z,37.07
2023-03-15T04:04:59.720Z,37.56
2023-03-15T04:07:28.081Z,37.66
2023-03-15T04:09:56.481Z,37.07
2023-03-15T04:12:24.698Z,37.66
2023-03-15T04:14:55.811Z,37.71
2023-03-15T04:17:26.931Z,37.79
2023-03-15T04:19:55.108Z,37.84
2023-03-15T04:22:29.496Z,37.97
2023-03-15T04:25:36.272Z,37.99
2023-03-15T04:28:40.103Z,37.67
2023-03-15T04:31:27.536Z,37.89
2023-03-15T04:34:05.491Z,37.84
2023-03-15T04:36:54.725Z,38.03
2023-03-15T04:39:42.843Z,37.71
2023-03-15T04:42:34.413Z,38.11
2023-03-15T04:45:30.572Z,37.93
2023-03-15T04:48:01.500Z,37.78
2023-03-15T04:50:40.403Z,38.05
2023-03-15T04:53:26.773Z,38.21
2023-03-15T04:56:15.070Z,37.89
2023-03-15T04:59:03.560Z,38.21
2023-03-15T05:01:50.276Z,38.71
2023-03-15T05:04:44.946Z,38.40
2023-03-15T05:07:18.934Z,38.35
2023-03-15T05:10:06.670Z,38.48
2023-03-15T05:12:46.481Z,38.25
2023-03-15T05:15:28.802Z,38.14
2023-03-15T05:18:29.803Z,38.02
2023-03-15T05:21:16.473Z,37.78
2023-03-15T05:23:58.169Z,38.02
2023-03-15T05:26:38.293Z,38.01
2023-03-15T05:29:27.085Z,38.02
2023-03-15T05:32:14.016Z,38.42
2023-03-15T05:34:56.672Z,38.37
2023-03-15T05:37:36.415Z,37.72
2023-03-15T05:40:36.871Z,38.21
2023-03-15T05:43:24.946Z,37.55
2023-03-15T05:46:29.680Z,37.83
2023-03-15T05:49:04.322Z,37.90
2023-03-15T05:51:49.863Z,37.87
2023-03-15T05:54:38.224Z,37.96
2023-03-15T05:57:32.549Z,37.77
2023-03-15T06:00:16.233Z,38.42
2023-03-15T06:02:46.006Z,38.26
2023-03-15T06:05:38.650Z,38.11
2023-03-15T06:08:10.628Z,38.44
2023-03-15T06:10:42.864Z,38.33
2023-03-15T06:13:12.290Z,38.38
2023-03-15T06:15:41.563Z,37.70
2023-03-15T06:18:13.839Z,37.83
2023-03-15T06:20:42.116Z,37.73
2023-03-15T06:23:14.007Z,37.82
2023-03-15T06:25:47.736Z,37.64
2023-03-15T06:28:16.589Z,38.38
2023-03-15T06:30:50.988Z,38.27
2023-03-15T06:33:24.432Z,37.90
2023-03-15T06:35:53.251Z,38.12
2023-03-15T06:38:21.357Z,38.32
2023-03-15T06:40:49.980Z,38.08
2023-03-15T06:43:19.600Z,37.76
2023-03-15T06:45:48.137Z,38.44
2023-03-15T06:48:17.519Z,38.90
2023-03-15T06:50:47.999Z,38.47
2023-03-15T06:53:16.915Z,39.11
2023-03-15T06:55:45.107Z,39.15
2023-03-15T06:58:13.347Z,38.61
2023-03-15T07:00:41.632Z,38.58
2023-03-15T07:03:09.753Z,38.08
2023-03-15T07:05:38.288Z,38.21
2023-03-15T07:08:07.962Z,38.29
2023-03-15T07:10:36.557Z,37.97
2023-03-15T07:13:06.933Z,37.40
2023-03-15T07:15:37.300Z,37.69
2023-03-15T07:18:05.459Z,37.88
2023-03-15T07:20:35.041Z,37.41
2023-03-15T07:23:04.422Z,36.94
2023-03-15T07:25:42.231Z,37.47
2023-03-15T07:28:20.361Z,36.89
2023-03-15T07:30:56.783Z,36.94
2023-03-15T07:33:25.173Z,37.25
2023-03-15T07:35:54.226Z,36.63
2023-03-15T07:38:22.392Z,36.81
2023-03-15T07:40:51.948Z,37.10
2023-03-15T07:43:20.475Z,36.56
2023-03-15T07:45:51.809Z,36.23
2023-03-15T07:48:19.936Z,36.59
2023-03-15T07:50:48.181Z,36.91
2023-03-15T07:53:16.351Z,36.43
2023-03-15T07:55:44.999Z,36.03
2023-03-15T07:58:14.433Z,36.15
2023-03-15T08:00:42.639Z,36.39
2023-03-15T08:03:10.771Z,35.68
2023-03-15T08:05:39.989Z,35.94
2023-03-15T08:08:08.316Z,36.11
2023-03-15T08:10:36.417Z,36.47
2023-03-15T08:13:04.493Z,35.99
2023-03-15T08:15:33.984Z,35.89
2023-03-15T08:18:02.095Z,36.59
2023-03-15T08:20:30.334Z,36.11
2023-03-15T08:22:58.446Z,36.26
2023-03-15T08:25:26.560Z,36.33
2023-03-15T08:27:54.635Z,36.74
2023-03-15T08:30:23.005Z,37.08
2023-03-15T08:32:53.013Z,37.33
2023-03-15T08:35:22.214Z,37.89
2023-03-15T08:37:50.355Z,37.42
2023-03-15T08:40:24.919Z,37.87
2023-03-15T08:42:53.095Z,37.55
2023-03-15T08:45:21.284Z,37.61
2023-03-15T08:47:49.493Z,37.24
2023-03-15T08:50:19.241Z,37.43
2023-03-15T08:52:47.304Z,37.68
2023-03-15T08:55:15.468Z,37.76
2023-03-15T08:57:43.950Z,37.53
2023-03-15T09:00:17.572Z,37.54
2023-03-15T09:02:48.197Z,37.92
2023-03-15T09:05:16.524Z,37.87
2023-03-15T09:07:45.965Z,37.76
2023-03-15T09:10:15.847Z,37.25
2023-03-15T09:12:43.936Z,38.02
2023-03-15T09:15:12.420Z,37.79
2023-03-15T09:17:40.892Z,37.57
2023-03-15T09:20:14.476Z,37.47
2023-03-15T09:22:42.628Z,37.89
2023-03-15T09:25:13.819Z,38.09
2023-03-15T09:27:42.302Z,37.88
2023-03-15T09:30:12.154Z,38.13
2023-03-15T09:32:41.292Z,37.60
2023-03-15T09:35:12.105Z,38.04
2023-03-15T09:37:42.660Z,37.44
2023-03-15T09:40:17.540Z,37.85
2023-03-15T09:42:55.967Z,37.58
2023-03-15T09:45:26.654Z,37.50
2023-03-15T09:47:57.324Z,37.78
2023-03-15T09:50:29.710Z,37.39
2023-03-15T09:53:00.578Z,37.52
2023-03-15T09:55:30.474Z,37.52
2023-03-15T09:57:59.898Z,37.47
2023-03-15T10:00:31.084Z,37.61
2023-03-15T10:03:01.579Z,37.56
2023-03-15T10:05:35.199Z,37.34
2023-03-15T10:08:03.367Z,37.53
2023-03-15T10:10:35.627Z,37.45
2023-03-15T10:13:09.556Z,37.38
2023-03-15T10:15:41.486Z,36.70
2023-03-15T10:18:35.532Z,36.49
2023-03-15T10:21:07.713Z,36.86
2023-03-15T10:23:41.378Z,36.64
2023-03-15T10:26:13.894Z,37.04
2023-03-15T10:28:42.344Z,36.44
2023-03-15T10:31:21.634Z,37.13
2023-03-15T10:33:54.052Z,36.76
2023-03-15T10:36:23.221Z,37.10
2023-03-15T10:38:51.436Z,36.69
2023-03-15T10:41:30.974Z,37.21
2023-03-15T10:44:01.172Z,36.72
2023-03-15T10:46:29.345Z,37.04
2023-03-15T10:48:59.292Z,37.03
2023-03-15T10:51:28.679Z,37.07
2023-03-15T10:53:57.968Z,37.03
2023-03-15T10:56:27.143Z,36.99
2023-03-15T10:59:11.360Z,36.66
2023-03-15T11:01:40.948Z,36.83
2023-03-15T11:04:15.184Z,36.59
2023-03-15T11:06:45.721Z,36.92
2023-03-15T11:09:16.181Z,36.45
2023-03-15T11:12:00.912Z,36.85
2023-03-15T11:14:34.903Z,36.53
2023-03-15T11:17:03.116Z,36.64
2023-03-15T11:19:32.805Z,37.17
2023-03-15T11:22:02.267Z,36.62
2023-03-15T11:24:31.051Z,36.84
2023-03-15T11:27:01.701Z,36.81
2023-03-15T11:29:31.674Z,36.90
2023-03-15T11:32:02.373Z,36.87
2023-03-15T11:34:41.734Z,36.70
2023-03-15T11:37:15.961Z,37.23
2023-03-15T11:39:46.673Z,36.71
2023-03-15T11:42:17.604Z,36.45
2023-03-15T11:44:47.252Z,36.95
2023-03-15T11:47:19.637Z,36.26
2023-03-15T11:49:50.095Z,37.04
2023-03-15T11:52:18.409Z,36.86
2023-03-15T11:54:46.758Z,36.66
2023-03-15T11:57:39.447Z,36.42
2023-03-15T12:00:49.216Z,36.34
2023-03-15T12:03:35.533Z,36.20
2023-03-15T12:06:35.771Z,36.69
2023-03-15T12:09:05.021Z,36.69
2023-03-15T12:11:40.679Z,36.03
2023-03-15T12:14:28.978Z,36.13
2023-03-15T12:17:38.117Z,36.55
2023-03-15T12:20:14.361Z,36.48
2023-03-15T12:22:43.156Z,36.34
2023-03-15T12:25:14.269Z,36.06
2023-03-15T12:27:44.814Z,35.88
2023-03-15T12:30:20.213Z,36.11
2023-03-15T12:32:50.249Z,36.38
2023-03-15T12:35:20.821Z,36.23
2023-03-15T12:37:49.498Z,35.98
2023-03-15T12:40:40.725Z,36.21
2023-03-15T12:43:09.291Z,36.15
2023-03-15T12:45:39.717Z,35.96
2023-03-15T12:48:26.979Z,35.71
2023-03-15T12:51:05.013Z,35.81
2023-03-15T12:53:38.881Z,36.18
2023-03-15T12:56:43.938Z,35.62
2023-03-15T12:59:17.691Z,36.18
2023-03-15T13:01:46.422Z,35.55
2023-03-15T13:04:14.640Z,35.86
2023-03-15T13:07:11.949Z,35.99
2023-03-15T13:10:02.781Z,33.69
2023-03-15T13:12:32.680Z,32.46
2023-03-15T13:15:02.627Z,32.63
2023-03-15T13:17:36.891Z,31.56
2023-03-15T13:20:16.134Z,29.41
2023-03-15T13:22:55.541Z,29.59
2023-03-15T13:25:27.199Z,28.81
2023-03-15T13:27:56.191Z,29.49
2023-03-15T13:30:42.102Z,30.20
2023-03-15T13:33:16.033Z,30.26
2023-03-15T13:35:44.595Z,29.86
2023-03-15T13:38:27.196Z,30.40
2023-03-15T13:40:55.473Z,29.92
2023-03-15T13:43:26.916Z,29.71
2023-03-15T13:45:58.165Z,29.64
2023-03-15T13:48:28.520Z,28.87
2023-03-15T13:50:57.448Z,28.34
2023-03-15T13:53:43.139Z,28.51
2023-03-15T13:56:17.084Z,29.39
2023-03-15T13:58:45.179Z,28.65
2023-03-15T14:01:13.718Z,28.68
2023-03-15T14:03:43.412Z,28.93
2023-03-15T14:06:13.536Z,28.97
2023-03-15T14:08:43.404Z,28.52
2023-03-15T14:11:32.743Z,29.30
2023-03-15T14:14:03.013Z,28.68
2023-03-15T14:16:34.175Z,28.75
2023-03-15T14:19:19.140Z,28.95
2023-03-15T14:21:49.023Z,29.52
2023-03-15T14:24:22.189Z,29.01
2023-03-15T14:26:53.450Z,29.49
2023-03-15T14:29:23.771Z,29.01
2023-03-15T14:31:52.191Z,29.62
2023-03-15T14:34:24.636Z,29.28
2023-03-15T14:36:54.236Z,29.20
2023-03-15T14:39:28.946Z,29.03
2023-03-15T14:41:57.321Z,29.55
2023-03-15T14:44:25.451Z,29.66
2023-03-15T14:46:53.541Z,29.16
2023-03-15T14:49:24.372Z,28.83
2023-03-15T14:51:54.646Z,28.63
2023-03-15T14:54:22.812Z,28.48
2023-03-15T14:56:52.419Z,27.95
2023-03-15T14:59:20.638Z,27.67
2023-03-15T15:01:50.454Z,27.40
2023-03-15T15:04:18.690Z,27.66
2023-03-15T15:06:52.248Z,27.87
2023-03-15T15:09:23.129Z,27.78
2023-03-15T15:11:53.545Z,28.17
2023-03-15T15:14:22.084Z,27.46
2023-03-15T15:16:50.408Z,27.61
2023-03-15T15:19:18.655Z,27.53
2023-03-15T15:21:46.853Z,27.93
2023-03-15T15:24:16.622Z,28.07
2023-03-15T15:26:44.886Z,28.47
2023-03-15T15:29:16.203Z,27.80
2023-03-15T15:31:44.739Z,28.52
2023-03-15T15:34:13.057Z,28.04
2023-03-15T15:36:42.172Z,28.65
2023-03-15T15:39:18.360Z,28.99
2023-03-15T15:41:46.775Z,29.17
2023-03-15T15:44:17.872Z,29.21
2023-03-15T15:46:46.291Z,28.91
2023-03-15T15:49:14.721Z,29.30
2023-03-15T15:51:45.891Z,29.64
2023-03-15T15:54:15.470Z,30.13
2023-03-15T15:56:46.763Z,29.87
2023-03-15T15:59:17.738Z,29.72
2023-03-15T16:01:59.419Z,29.90
2023-03-15T16:04:28.732Z,30.06
2023-03-15T16:06:58.662Z,30.16
2023-03-15T16:09:27.350Z,30.10
2023-03-15T16:11:55.782Z,30.60
2023-03-15T16:14:25.380Z,30.87
2023-03-15T16:16:53.626Z,30.30
2023-03-15T16:19:22.135Z,30.76
2023-03-15T16:21:51.018Z,31.09
2023-03-15T16:24:20.701Z,30.81
2023-03-15T16:26:48.890Z,31.16
2023-03-15T16:29:18.179Z,31.31
2023-03-15T16:31:47.800Z,30.69
2023-03-15T16:34:17.114Z,31.05
2023-03-15T16:36:49.199Z,31.08
2023-03-15T16:39:17.755Z,31.27
2023-03-15T16:41:46.022Z,31.57
2023-03-15T16:44:14.397Z,31.01
2023-03-15T16:46:42.608Z,30.95
2023-03-15T16:49:14.318Z,30.98
2023-03-15T16:51:44.334Z,31.09
2023-03-15T16:57:01.584Z,30.96
2023-03-15T16:59:29.698Z,31.06
2023-03-15T17:01:57.941Z,31.01
2023-03-15T17:04:27.493Z,31.01
2023-03-15T17:06:56.449Z,31.12
2023-03-15T17:09:24.566Z,31.36
2023-03-15T17:11:53.092Z,31.02
2023-03-15T17:14:22.416Z,31.06
2023-03-15T17:16:51.122Z,31.71
2023-03-15T17:19:19.210Z,31.14
2023-03-15T17:21:49.339Z,31.34
2023-03-15T17:24:17.495Z,31.41
2023-03-15T17:26:45.631Z,31.36
2023-03-15T17:29:14.888Z,31.83
2023-03-15T17:31:44.605Z,31.79
2023-03-15T17:34:12.756Z,31.30
2023-03-15T17:36:41.112Z,31.67
2023-03-15T17:39:12.475Z,31.90
2023-03-15T17:41:40.622Z,31.68
2023-03-15T17:44:08.720Z,31.87
2023-03-15T17:46:36.905Z,31.95
2023-03-15T17:49:06.355Z,31.59
2023-03-15T17:51:35.581Z,32.09
2023-03-15T17:54:03.623Z,31.72
2023-03-15T17:56:33.203Z,32.26
2023-03-15T17:59:01.726Z,32.08
2023-03-15T18:01:29.957Z,32.27
2023-03-15T18:03:58.359Z,31.98
2023-03-15T18:06:26.967Z,32.06
2023-03-15T18:08:55.033Z,32.14
2023-03-15T18:11:24.742Z,31.79
2023-03-15T18:13:54.342Z,32.05
2023-03-15T18:16:22.584Z,32.29
2023-03-15T18:18:50.785Z,31.93
2023-03-15T18:21:20.278Z,32.08
2023-03-15T18:23:49.772Z,32.51
2023-03-15T18:26:20.031Z,32.56
2023-03-15T18:28:49.072Z,32.32
2023-03-15T18:31:19.165Z,32.07
2023-03-15T18:33:47.349Z,31.93
2023-03-15T18:36:15.571Z,32.73
2023-03-15T18:38:43.838Z,32.64
2023-03-15T18:41:14.093Z,32.60
2023-03-15T18:43:42.214Z,32.37
2023-03-15T18:46:10.504Z,32.45
2023-03-15T18:48:41.254Z,32.11
2023-03-15T18:51:12.214Z,32.81
2023-03-15T18:53:40.450Z,32.61
2023-03-15T18:56:10.012Z,32.33
2023-03-15T18:58:38.144Z,33.12
2023-03-15T19:01:06.319Z,33.19
2023-03-15T19:03:35.492Z,32.82
2023-03-15T19:06:07.677Z,33.56
2023-03-15T19:08:35.957Z,32.90
2023-03-15T19:11:04.740Z,33.50
2023-03-15T19:13:32.916Z,32.99
2023-03-15T19:16:01.831Z,33.50
2023-03-15T19:18:32.347Z,33.98
2023-03-15T19:21:00.738Z,33.59
2023-03-15T19:23:30.276Z,33.73
2023-03-15T19:25:58.385Z,33.49
2023-03-15T19:28:26.543Z,34.06
2023-03-15T19:30:54.688Z,34.08
2023-03-15T19:33:22.848Z,34.00
2023-03-15T19:35:51.332Z,33.96
2023-03-15T19:38:19.980Z,34.14
2023-03-15T19:40:50.525Z,33.74
2023-03-15T19:43:19.927Z,33.72
2023-03-15T19:45:48.061Z,33.82
2023-03-15T19:48:16.592Z,33.47
2023-03-15T19:50:44.767Z,34.03
2023-03-15T19:53:12.876Z,33.79
2023-03-15T19:55:41.022Z,33.60
2023-03-15T19:58:10.601Z,33.34
2023-03-15T20:00:38.771Z,33.52
2023-03-15T20:03:06.922Z,33.55
2023-03-15T20:05:35.640Z,33.46
2023-03-15T20:08:03.737Z,33.77
2023-03-15T20:10:31.830Z,34.01
2023-03-15T20:12:59.934Z,33.91
2023-03-15T20:15:29.632Z,33.62
2023-03-15T20:17:57.857Z,33.87
2023-03-15T20:20:26.018Z,33.66
2023-03-15T20:22:54.133Z,33.44
2023-03-15T20:25:22.412Z,33.83
2023-03-15T20:27:50.993Z,33.47
2023-03-15T20:30:19.954Z,33.90
2023-03-15T20:32:49.761Z,33.95
2023-03-15T20:35:18.077Z,33.80
2023-03-15T20:37:46.151Z,33.47
2023-03-15T20:40:15.545Z,33.55
2023-03-15T20:42:43.636Z,33.57
2023-03-15T20:45:12.786Z,33.88
2023-03-15T20:47:41.286Z,33.64
2023-03-15T20:50:13.196Z,33.58
2023-03-15T20:52:42.741Z,33.84
2023-03-15T20:55:11.549Z,33.54
2023-03-15T20:57:42.132Z,33.53
2023-03-15T21:00:12.704Z,33.81
2023-03-15T21:02:41.235Z,33.56
2023-03-15T21:05:13.115Z,33.77
2023-03-15T21:07:41.422Z,33.75
2023-03-15T21:10:11.028Z,33.85
2023-03-15T21:12:39.052Z,33.64
2023-03-15T21:15:08.348Z,33.59
2023-03-15T21:17:36.473Z,33.12
2023-03-15T21:20:07.305Z,33.22
2023-03-15T21:22:36.773Z,33.14
2023-03-15T21:25:05.729Z,33.38
2023-03-15T21:27:33.925Z,33.72
2023-03-15T21:30:02.512Z,32.98
2023-03-15T21:32:30.646Z,33.11
2023-03-15T21:34:58.740Z,33.64
2023-03-15T21:37:26.853Z,33.49
2023-03-15T21:39:56.420Z,32.99
2023-03-15T21:42:24.585Z,33.27
2023-03-15T21:44:53.784Z,33.36
2023-03-15T21:47:21.897Z,33.70
2023-03-15T21:49:50.888Z,32.99
2023-03-15T21:52:18.973Z,33.14
2023-03-15T21:54:47.054Z,33.07
2023-03-15T21:57:16.753Z,32.80
2023-03-15T21:59:44.848Z,33.00
2023-03-15T22:02:14.357Z,33.36
2023-03-15T22:04:42.819Z,33.08
2023-03-15T22:07:11.190Z,33.06
2023-03-15T22:09:40.193Z,33.43
2023-03-15T22:12:08.936Z,32.97
2023-03-15T22:14:38.529Z,32.77
2023-03-15T22:17:06.819Z,33.19
2023-03-15T22:19:35.148Z,32.82
2023-03-15T22:22:03.387Z,33.38
2023-03-15T22:24:34.071Z,33.10
2023-03-15T22:27:02.277Z,32.93
2023-03-15T22:29:30.466Z,33.08
2023-03-15T22:31:59.926Z,33.13
2023-03-15T22:34:28.332Z,33.11
2023-03-15T22:36:56.431Z,33.08
2023-03-15T22:39:24.520Z,33.17
2023-03-15T22:41:52.848Z,32.85
2023-03-15T22:44:20.983Z,33.31
2023-03-15T22:46:49.088Z,33.05
2023-03-15T22:49:18.600Z,33.27
2023-03-15T22:51:46.663Z,33.41
2023-03-15T22:54:14.755Z,32.81
2023-03-15T22:56:43.237Z,33.20
2023-03-15T22:59:11.400Z,32.94
2023-03-15T23:01:39.850Z,33.24
2023-03-15T23:04:08.044Z,33.41
2023-03-15T23:06:37.557Z,33.04
2023-03-15T23:09:06.748Z,32.85
2023-03-15T23:11:35.029Z,32.79
2023-03-15T23:14:03.121Z,33.28
2023-03-15T23:16:31.961Z,32.71
2023-03-15T23:19:00.107Z,32.61
2023-03-15T23:21:28.281Z,33.32
2023-03-15T23:23:57.767Z,33.17
2023-03-15T23:26:26.393Z,33.06
2023-03-15T23:28:54.488Z,33.19
2023-03-15T23:31:22.616Z,33.25
2023-03-15T23:33:50.757Z,32.66
2023-03-15T23:36:18.867Z,33.24
2023-03-15T23:38:47.132Z,32.96
2023-03-15T23:41:16.601Z,33.36
2023-03-15T23:43:44.739Z,33.32
2023-03-15T23:46:14.539Z,33.11
2023-03-15T23:48:42.758Z,33.11
2023-03-15T23:51:12.675Z,32.93
2023-03-15T23:53:40.806Z,32.73
2023-03-15T23:56:09.033Z,32.89
2023-03-15T23:58:38.739Z,33.03
